sensor_id;sensor_type;location;lat;lon;timestamp;temperature;humidity
37002;DHT22;22913;51.910;8.374;2023-04-06T00:02:40;4.10;99.90
37002;DHT22;22913;51.910;8.374;2023-04-06T00:05:26;4.10;99.90
37002;DHT22;22913;51.910;8.374;2023-04-06T00:08:12;4.00;99.90
37002;DHT22;22913;51.910;8.374;2023-04-06T00:10:57;3.90;99.90
37002;DHT22;22913;51.910;8.374;2023-04-06T00:13:44;3.90;99.90
37002;DHT22;22913;51.910;8.374;2023-04-06T00:16:29;3.80;99.90
37002;DHT22;22913;51.910;8.374;2023-04-06T00:19:16;3.90;99.90
37002;DHT22;22913;51.910;8.374;2023-04-06T00:22:02;3.90;99.90
37002;DHT22;22913;51.910;8.374;2023-04-06T00:24:48;3.80;99.90
37002;DHT22;22913;51.910;8.374;2023-04-06T00:27:34;3.80;99.90
37002;DHT22;22913;51.910;8.374;2023-04-06T00:30:20;3.80;99.90
37002;DHT22;22913;51.910;8.374;2023-04-06T00:33:05;3.80;99.90
37002;DHT22;22913;51.910;8.374;2023-04-06T00:35:52;3.70;99.90
37002;DHT22;22913;51.910;8.374;2023-04-06T00:38:38;3.70;99.90
37002;DHT22;22913;51.910;8.374;2023-04-06T00:41:23;3.70;99.90
37002;DHT22;22913;51.910;8.374;2023-04-06T00:44:09;3.60;99.90
37002;DHT22;22913;51.910;8.374;2023-04-06T00:46:55;3.70;99.90
37002;DHT22;22913;51.910;8.374;2023-04-06T00:49:41;3.60;99.90
37002;DHT22;22913;51.910;8.374;2023-04-06T00:52:28;3.60;99.90
37002;DHT22;22913;51.910;8.374;2023-04-06T00:55:13;3.60;99.90
37002;DHT22;22913;51.910;8.374;2023-04-06T00:57:59;3.50;99.90
37002;DHT22;22913;51.910;8.374;2023-04-06T01:00:45;3.50;99.90
37002;DHT22;22913;51.910;8.374;2023-04-06T01:03:31;3.50;99.90
37002;DHT22;22913;51.910;8.374;2023-04-06T01:06:16;3.50;99.90
37002;DHT22;22913;51.910;8.374;2023-04-06T01:09:03;3.40;99.90
37002;DHT22;22913;51.910;8.374;2023-04-06T01:11:49;3.40;99.90
37002;DHT22;22913;51.910;8.374;2023-04-06T01:14:35;3.30;99.90
37002;DHT22;22913;51.910;8.374;2023-04-06T01:17:21;3.30;99.90
37002;DHT22;22913;51.910;8.374;2023-04-06T01:20:07;3.30;99.90
37002;DHT22;22913;51.910;8.374;2023-04-06T01:22:54;3.20;99.90
37002;DHT22;22913;51.910;8.374;2023-04-06T01:25:39;3.20;99.90
37002;DHT22;22913;51.910;8.374;2023-04-06T01:28:25;3.20;99.90
37002;DHT22;22913;51.910;8.374;2023-04-06T01:31:11;3.20;99.90
37002;DHT22;22913;51.910;8.374;2023-04-06T01:33:57;3.20;99.90
37002;DHT22;22913;51.910;8.374;2023-04-06T01:36:42;3.10;99.90
37002;DHT22;22913;51.910;8.374;2023-04-06T01:39:30;3.10;99.90
37002;DHT22;22913;51.910;8.374;2023-04-06T01:42:16;3.10;99.90
37002;DHT22;22913;51.910;8.374;2023-04-06T01:45:01;3.10;99.90
37002;DHT22;22913;51.910;8.374;2023-04-06T01:47:47;3.00;99.90
37002;DHT22;22913;51.910;8.374;2023-04-06T01:50:32;3.00;99.90
37002;DHT22;22913;51.910;8.374;2023-04-06T01:53:18;3.00;99.90
37002;DHT22;22913;51.910;8.374;2023-04-06T01:56:06;2.90;99.90
37002;DHT22;22913;51.910;8.374;2023-04-06T01:58:51;2.90;99.90
37002;DHT22;22913;51.910;8.374;2023-04-06T02:01:37;2.90;99.90
37002;DHT22;22913;51.910;8.374;2023-04-06T02:04:23;2.90;99.90
37002;DHT22;22913;51.910;8.374;2023-04-06T02:07:08;2.80;99.90
37002;DHT22;22913;51.910;8.374;2023-04-06T02:09:55;2.80;99.90
37002;DHT22;22913;51.910;8.374;2023-04-06T02:12:42;2.70;99.90
37002;DHT22;22913;51.910;8.374;2023-04-06T02:15:27;2.70;99.90
37002;DHT22;22913;51.910;8.374;2023-04-06T02:18:13;2.70;99.90
37002;DHT22;22913;51.910;8.374;2023-04-06T02:20:59;2.70;99.90
37002;DHT22;22913;51.910;8.374;2023-04-06T02:23:45;2.70;99.90
37002;DHT22;22913;51.910;8.374;2023-04-06T02:26:31;2.70;99.90
37002;DHT22;22913;51.910;8.374;2023-04-06T02:29:18;2.70;99.90
37002;DHT22;22913;51.910;8.374;2023-04-06T02:32:04;2.70;99.90
37002;DHT22;22913;51.910;8.374;2023-04-06T02:34:50;2.60;99.90
37002;DHT22;22913;51.910;8.374;2023-04-06T02:37:36;2.60;99.90
37002;DHT22;22913;51.910;8.374;2023-04-06T02:40:22;2.60;99.90
37002;DHT22;22913;51.910;8.374;2023-04-06T02:43:07;2.60;99.90
37002;DHT22;22913;51.910;8.374;2023-04-06T02:45:54;2.50;99.90
37002;DHT22;22913;51.910;8.374;2023-04-06T02:48:40;2.50;99.90
37002;DHT22;22913;51.910;8.374;2023-04-06T02:51:25;2.50;99.90
37002;DHT22;22913;51.910;8.374;2023-04-06T02:54:11;2.40;99.90
37002;DHT22;22913;51.910;8.374;2023-04-06T02:56:56;2.40;99.90
37002;DHT22;22913;51.910;8.374;2023-04-06T02:59:42;2.40;99.90
37002;DHT22;22913;51.910;8.374;2023-04-06T03:02:29;2.40;99.90
37002;DHT22;22913;51.910;8.374;2023-04-06T03:05:15;2.30;99.90
37002;DHT22;22913;51.910;8.374;2023-04-06T03:08:00;2.30;99.90
37002;DHT22;22913;51.910;8.374;2023-04-06T03:10:46;2.30;99.90
37002;DHT22;22913;51.910;8.374;2023-04-06T03:13:32;2.30;99.90
37002;DHT22;22913;51.910;8.374;2023-04-06T03:16:17;2.30;99.90
37002;DHT22;22913;51.910;8.374;2023-04-06T03:19:04;2.20;99.90
37002;DHT22;22913;51.910;8.374;2023-04-06T03:21:50;2.20;99.90
37002;DHT22;22913;51.910;8.374;2023-04-06T03:24:36;2.20;99.90
37002;DHT22;22913;51.910;8.374;2023-04-06T03:27:21;2.20;99.90
37002;DHT22;22913;51.910;8.374;2023-04-06T03:30:08;2.10;99.90
37002;DHT22;22913;51.910;8.374;2023-04-06T03:32:53;2.10;99.90
37002;DHT22;22913;51.910;8.374;2023-04-06T03:35:40;2.10;99.90
37002;DHT22;22913;51.910;8.374;2023-04-06T03:38:26;2.00;99.90
37002;DHT22;22913;51.910;8.374;2023-04-06T03:41:12;2.10;99.90
37002;DHT22;22913;51.910;8.374;2023-04-06T03:43:57;2.00;99.90
37002;DHT22;22913;51.910;8.374;2023-04-06T03:46:43;2.00;99.90
37002;DHT22;22913;51.910;8.374;2023-04-06T03:49:29;2.00;99.90
37002;DHT22;22913;51.910;8.374;2023-04-06T03:52:16;2.00;99.90
37002;DHT22;22913;51.910;8.374;2023-04-06T03:55:01;2.00;99.90
37002;DHT22;22913;51.910;8.374;2023-04-06T03:57:47;2.00;99.90
37002;DHT22;22913;51.910;8.374;2023-04-06T04:00:33;1.90;99.90
37002;DHT22;22913;51.910;8.374;2023-04-06T04:03:19;2.00;99.90
37002;DHT22;22913;51.910;8.374;2023-04-06T04:06:05;2.00;99.90
37002;DHT22;22913;51.910;8.374;2023-04-06T04:08:52;1.90;99.90
37002;DHT22;22913;51.910;8.374;2023-04-06T04:11:38;1.90;99.90
37002;DHT22;22913;51.910;8.374;2023-04-06T04:14:24;1.90;99.90
37002;DHT22;22913;51.910;8.374;2023-04-06T04:17:09;1.90;99.90
37002;DHT22;22913;51.910;8.374;2023-04-06T04:19:55;1.90;99.90
37002;DHT22;22913;51.910;8.374;2023-04-06T04:22:41;1.80;99.90
37002;DHT22;22913;51.910;8.374;2023-04-06T04:25:28;1.80;99.90
37002;DHT22;22913;51.910;8.374;2023-04-06T04:28:13;1.80;99.90
37002;DHT22;22913;51.910;8.374;2023-04-06T04:30:59;1.80;99.90
37002;DHT22;22913;51.910;8.374;2023-04-06T04:33:44;1.70;99.90
37002;DHT22;22913;51.910;8.374;2023-04-06T04:36:30;1.70;99.90
37002;DHT22;22913;51.910;8.374;2023-04-06T04:39:16;1.70;99.90
37002;DHT22;22913;51.910;8.374;2023-04-06T04:42:03;1.70;99.90
37002;DHT22;22913;51.910;8.374;2023-04-06T04:44:49;1.70;99.90
37002;DHT22;22913;51.910;8.374;2023-04-06T04:47:35;1.60;99.90
37002;DHT22;22913;51.910;8.374;2023-04-06T04:50:20;1.60;99.90
37002;DHT22;22913;51.910;8.374;2023-04-06T04:53:06;1.60;99.90
37002;DHT22;22913;51.910;8.374;2023-04-06T04:55:51;1.60;99.90
37002;DHT22;22913;51.910;8.374;2023-04-06T04:58:39;1.60;99.90
37002;DHT22;22913;51.910;8.374;2023-04-06T05:01:24;1.60;99.90
37002;DHT22;22913;51.910;8.374;2023-04-06T05:04:10;1.60;99.90
37002;DHT22;22913;51.910;8.374;2023-04-06T05:07:05;1.70;99.90
37002;DHT22;22913;51.910;8.374;2023-04-06T05:09:51;1.70;99.90
37002;DHT22;22913;51.910;8.374;2023-04-06T05:12:37;1.70;99.90
37002;DHT22;22913;51.910;8.374;2023-04-06T05:15:24;1.70;99.90
37002;DHT22;22913;51.910;8.374;2023-04-06T05:18:10;1.60;99.90
37002;DHT22;22913;51.910;8.374;2023-04-06T05:20:56;1.70;99.90
37002;DHT22;22913;51.910;8.374;2023-04-06T05:23:42;1.70;99.90
37002;DHT22;22913;51.910;8.374;2023-04-06T05:26:28;1.70;99.90
37002;DHT22;22913;51.910;8.374;2023-04-06T05:29:13;1.70;99.90
37002;DHT22;22913;51.910;8.374;2023-04-06T05:32:01;1.70;99.90
37002;DHT22;22913;51.910;8.374;2023-04-06T05:34:46;1.80;99.90
37002;DHT22;22913;51.910;8.374;2023-04-06T05:37:32;1.70;99.90
37002;DHT22;22913;51.910;8.374;2023-04-06T05:40:18;1.80;99.90
37002;DHT22;22913;51.910;8.374;2023-04-06T05:43:07;1.80;99.90
37002;DHT22;22913;51.910;8.374;2023-04-06T05:45:52;1.90;99.90
37002;DHT22;22913;51.910;8.374;2023-04-06T05:48:40;1.90;99.90
37002;DHT22;22913;51.910;8.374;2023-04-06T05:51:25;2.00;99.90
37002;DHT22;22913;51.910;8.374;2023-04-06T05:54:10;2.00;99.90
37002;DHT22;22913;51.910;8.374;2023-04-06T05:56:56;2.00;99.90
37002;DHT22;22913;51.910;8.374;2023-04-06T05:59:42;2.10;99.90
37002;DHT22;22913;51.910;8.374;2023-04-06T06:02:28;2.10;99.90
37002;DHT22;22913;51.910;8.374;2023-04-06T06:05:16;2.20;99.90
37002;DHT22;22913;51.910;8.374;2023-04-06T06:08:02;2.30;99.90
37002;DHT22;22913;51.910;8.374;2023-04-06T06:10:48;2.30;99.90
37002;DHT22;22913;51.910;8.374;2023-04-06T06:13:34;2.40;99.90
37002;DHT22;22913;51.910;8.374;2023-04-06T06:16:19;2.40;99.90
37002;DHT22;22913;51.910;8.374;2023-04-06T06:19:05;2.50;99.90
37002;DHT22;22913;51.910;8.374;2023-04-06T06:21:52;2.60;99.90
37002;DHT22;22913;51.910;8.374;2023-04-06T06:24:38;2.70;99.90
37002;DHT22;22913;51.910;8.374;2023-04-06T06:27:23;2.80;99.90
37002;DHT22;22913;51.910;8.374;2023-04-06T06:30:09;2.90;99.90
37002;DHT22;22913;51.910;8.374;2023-04-06T06:32:55;3.00;99.90
37002;DHT22;22913;51.910;8.374;2023-04-06T06:35:40;3.10;99.90
37002;DHT22;22913;51.910;8.374;2023-04-06T06:38:27;3.10;99.90
37002;DHT22;22913;51.910;8.374;2023-04-06T06:41:13;3.20;99.90
37002;DHT22;22913;51.910;8.374;2023-04-06T06:43:58;3.30;99.90
37002;DHT22;22913;51.910;8.374;2023-04-06T06:46:44;3.50;99.90
37002;DHT22;22913;51.910;8.374;2023-04-06T06:49:30;3.50;99.90
37002;DHT22;22913;51.910;8.374;2023-04-06T06:52:15;3.60;99.90
37002;DHT22;22913;51.910;8.374;2023-04-06T06:55:03;3.70;99.90
37002;DHT22;22913;51.910;8.374;2023-04-06T06:57:48;3.90;99.90
37002;DHT22;22913;51.910;8.374;2023-04-06T07:00:34;4.00;99.90
37002;DHT22;22913;51.910;8.374;2023-04-06T07:03:20;4.10;99.90
37002;DHT22;22913;51.910;8.374;2023-04-06T07:06:06;4.30;99.90
37002;DHT22;22913;51.910;8.374;2023-04-06T07:08:51;4.40;99.90
37002;DHT22;22913;51.910;8.374;2023-04-06T07:11:38;4.50;99.90
37002;DHT22;22913;51.910;8.374;2023-04-06T07:14:24;4.60;99.90
37002;DHT22;22913;51.910;8.374;2023-04-06T07:17:10;4.80;99.90
37002;DHT22;22913;51.910;8.374;2023-04-06T07:19:56;4.90;99.90
37002;DHT22;22913;51.910;8.374;2023-04-06T07:22:43;5.00;99.90
37002;DHT22;22913;51.910;8.374;2023-04-06T07:25:29;5.10;99.90
37002;DHT22;22913;51.910;8.374;2023-04-06T07:28:16;5.20;99.90
37002;DHT22;22913;51.910;8.374;2023-04-06T07:31:02;5.30;99.90
37002;DHT22;22913;51.910;8.374;2023-04-06T07:33:47;5.40;99.90
37002;DHT22;22913;51.910;8.374;2023-04-06T07:36:34;5.50;99.90
37002;DHT22;22913;51.910;8.374;2023-04-06T07:39:19;5.60;99.90
37002;DHT22;22913;51.910;8.374;2023-04-06T07:42:05;5.70;99.90
37002;DHT22;22913;51.910;8.374;2023-04-06T07:44:52;5.80;99.90
37002;DHT22;22913;51.910;8.374;2023-04-06T07:47:38;6.00;99.90
37002;DHT22;22913;51.910;8.374;2023-04-06T07:50:23;6.10;99.90
37002;DHT22;22913;51.910;8.374;2023-04-06T07:53:09;6.20;99.90
37002;DHT22;22913;51.910;8.374;2023-04-06T07:55:55;6.20;99.90
37002;DHT22;22913;51.910;8.374;2023-04-06T07:58:40;6.40;99.90
37002;DHT22;22913;51.910;8.374;2023-04-06T08:01:28;6.40;99.90
37002;DHT22;22913;51.910;8.374;2023-04-06T08:04:14;6.60;99.90
37002;DHT22;22913;51.910;8.374;2023-04-06T08:07:00;6.80;99.90
37002;DHT22;22913;51.910;8.374;2023-04-06T08:09:47;6.90;99.90
37002;DHT22;22913;51.910;8.374;2023-04-06T08:12:32;7.00;99.90
37002;DHT22;22913;51.910;8.374;2023-04-06T08:15:18;7.10;99.90
37002;DHT22;22913;51.910;8.374;2023-04-06T08:18:05;7.10;99.90
37002;DHT22;22913;51.910;8.374;2023-04-06T08:20:51;7.30;99.90
37002;DHT22;22913;51.910;8.374;2023-04-06T08:23:37;7.40;99.90
37002;DHT22;22913;51.910;8.374;2023-04-06T08:26:22;7.50;99.90
37002;DHT22;22913;51.910;8.374;2023-04-06T08:29:08;7.60;99.90
37002;DHT22;22913;51.910;8.374;2023-04-06T08:31:54;7.70;99.90
37002;DHT22;22913;51.910;8.374;2023-04-06T08:34:41;7.80;99.90
37002;DHT22;22913;51.910;8.374;2023-04-06T08:37:27;7.90;99.90
37002;DHT22;22913;51.910;8.374;2023-04-06T08:40:13;8.00;99.90
37002;DHT22;22913;51.910;8.374;2023-04-06T08:42:59;8.00;99.90
37002;DHT22;22913;51.910;8.374;2023-04-06T08:45:48;8.10;99.90
37002;DHT22;22913;51.910;8.374;2023-04-06T08:48:34;8.20;99.90
37002;DHT22;22913;51.910;8.374;2023-04-06T08:51:23;8.30;99.90
37002;DHT22;22913;51.910;8.374;2023-04-06T08:54:09;8.30;99.90
37002;DHT22;22913;51.910;8.374;2023-04-06T08:56:55;8.50;99.90
37002;DHT22;22913;51.910;8.374;2023-04-06T08:59:41;8.70;99.90
37002;DHT22;22913;51.910;8.374;2023-04-06T09:02:27;8.80;99.90
37002;DHT22;22913;51.910;8.374;2023-04-06T09:05:13;8.90;99.90
37002;DHT22;22913;51.910;8.374;2023-04-06T09:07:59;9.10;99.90
37002;DHT22;22913;51.910;8.374;2023-04-06T09:10:45;9.30;99.90
37002;DHT22;22913;51.910;8.374;2023-04-06T09:13:31;9.40;99.90
37002;DHT22;22913;51.910;8.374;2023-04-06T09:16:17;9.50;99.90
37002;DHT22;22913;51.910;8.374;2023-04-06T09:19:04;9.70;99.90
37002;DHT22;22913;51.910;8.374;2023-04-06T09:21:50;9.80;99.90
37002;DHT22;22913;51.910;8.374;2023-04-06T09:24:44;9.80;99.90
37002;DHT22;22913;51.910;8.374;2023-04-06T09:27:30;10.00;99.90
37002;DHT22;22913;51.910;8.374;2023-04-06T09:30:16;10.20;99.90
37002;DHT22;22913;51.910;8.374;2023-04-06T09:33:02;10.30;99.90
37002;DHT22;22913;51.910;8.374;2023-04-06T09:35:49;10.40;99.90
37002;DHT22;22913;51.910;8.374;2023-04-06T09:38:37;10.50;99.90
37002;DHT22;22913;51.910;8.374;2023-04-06T09:41:28;10.60;99.90
37002;DHT22;22913;51.910;8.374;2023-04-06T09:44:14;10.80;99.90
37002;DHT22;22913;51.910;8.374;2023-04-06T09:47:01;10.90;99.90
37002;DHT22;22913;51.910;8.374;2023-04-06T09:49:50;11.00;99.90
37002;DHT22;22913;51.910;8.374;2023-04-06T09:52:42;11.10;99.90
37002;DHT22;22913;51.910;8.374;2023-04-06T09:55:32;11.30;99.90
37002;DHT22;22913;51.910;8.374;2023-04-06T09:58:22;11.40;99.90
37002;DHT22;22913;51.910;8.374;2023-04-06T10:01:13;11.50;99.90
37002;DHT22;22913;51.910;8.374;2023-04-06T10:04:09;11.60;99.90
37002;DHT22;22913;51.910;8.374;2023-04-06T10:06:57;11.80;99.90
37002;DHT22;22913;51.910;8.374;2023-04-06T10:09:45;11.80;99.90
37002;DHT22;22913;51.910;8.374;2023-04-06T10:12:32;11.90;99.90
37002;DHT22;22913;51.910;8.374;2023-04-06T10:15:18;12.10;99.90
37002;DHT22;22913;51.910;8.374;2023-04-06T10:18:05;12.30;99.90
37002;DHT22;22913;51.910;8.374;2023-04-06T10:20:54;12.50;99.90
37002;DHT22;22913;51.910;8.374;2023-04-06T10:23:45;12.70;99.90
37002;DHT22;22913;51.910;8.374;2023-04-06T10:26:32;12.90;99.90
37002;DHT22;22913;51.910;8.374;2023-04-06T10:29:17;13.00;99.90
37002;DHT22;22913;51.910;8.374;2023-04-06T10:32:05;13.20;99.90
37002;DHT22;22913;51.910;8.374;2023-04-06T10:34:50;13.20;99.90
37002;DHT22;22913;51.910;8.374;2023-04-06T10:37:50;13.40;99.90
37002;DHT22;22913;51.910;8.374;2023-04-06T10:40:36;13.70;99.90
37002;DHT22;22913;51.910;8.374;2023-04-06T10:43:23;13.70;99.90
37002;DHT22;22913;51.910;8.374;2023-04-06T10:46:09;13.60;99.90
37002;DHT22;22913;51.910;8.374;2023-04-06T10:48:57;13.40;99.90
37002;DHT22;22913;51.910;8.374;2023-04-06T10:51:44;13.60;99.90
37002;DHT22;22913;51.910;8.374;2023-04-06T10:54:30;13.70;99.90
37002;DHT22;22913;51.910;8.374;2023-04-06T10:57:27;14.00;99.90
37002;DHT22;22913;51.910;8.374;2023-04-06T11:00:14;14.10;99.90
37002;DHT22;22913;51.910;8.374;2023-04-06T11:03:00;14.20;99.90
37002;DHT22;22913;51.910;8.374;2023-04-06T11:05:48;14.40;99.90
37002;DHT22;22913;51.910;8.374;2023-04-06T11:08:34;14.60;99.90
37002;DHT22;22913;51.910;8.374;2023-04-06T11:11:21;15.00;99.90
37002;DHT22;22913;51.910;8.374;2023-04-06T11:14:09;15.00;99.90
37002;DHT22;22913;51.910;8.374;2023-04-06T11:16:55;14.90;99.90
37002;DHT22;22913;51.910;8.374;2023-04-06T11:19:41;15.00;99.90
37002;DHT22;22913;51.910;8.374;2023-04-06T11:22:28;15.40;99.20
37002;DHT22;22913;51.910;8.374;2023-04-06T11:25:14;15.30;98.60
37002;DHT22;22913;51.910;8.374;2023-04-06T11:28:01;15.60;96.60
37002;DHT22;22913;51.910;8.374;2023-04-06T11:30:47;16.00;95.80
37002;DHT22;22913;51.910;8.374;2023-04-06T11:33:35;16.20;95.00
37002;DHT22;22913;51.910;8.374;2023-04-06T11:36:21;16.30;94.40
37002;DHT22;22913;51.910;8.374;2023-04-06T11:39:09;16.50;94.10
37002;DHT22;22913;51.910;8.374;2023-04-06T11:41:58;16.70;93.00
37002;DHT22;22913;51.910;8.374;2023-04-06T11:44:44;16.70;90.80
37002;DHT22;22913;51.910;8.374;2023-04-06T11:47:31;16.70;91.60
37002;DHT22;22913;51.910;8.374;2023-04-06T11:50:17;17.10;91.70
37002;DHT22;22913;51.910;8.374;2023-04-06T11:53:03;17.50;90.50
37002;DHT22;22913;51.910;8.374;2023-04-06T11:55:50;17.10;89.80
37002;DHT22;22913;51.910;8.374;2023-04-06T11:58:36;17.40;90.10
37002;DHT22;22913;51.910;8.374;2023-04-06T12:01:22;17.70;90.00
37002;DHT22;22913;51.910;8.374;2023-04-06T12:04:07;17.90;88.60
37002;DHT22;22913;51.910;8.374;2023-04-06T12:06:53;17.90;87.10
37002;DHT22;22913;51.910;8.374;2023-04-06T12:09:38;18.00;88.40
37002;DHT22;22913;51.910;8.374;2023-04-06T12:12:25;18.50;85.20
37002;DHT22;22913;51.910;8.374;2023-04-06T12:15:11;18.60;79.80
37002;DHT22;22913;51.910;8.374;2023-04-06T12:17:56;18.90;76.50
37002;DHT22;22913;51.910;8.374;2023-04-06T12:20:42;18.90;75.40
37002;DHT22;22913;51.910;8.374;2023-04-06T12:23:28;18.90;76.50
37002;DHT22;22913;51.910;8.374;2023-04-06T12:26:14;19.40;74.00
37002;DHT22;22913;51.910;8.374;2023-04-06T12:29:00;19.50;71.80
37002;DHT22;22913;51.910;8.374;2023-04-06T12:31:50;20.20;72.40
37002;DHT22;22913;51.910;8.374;2023-04-06T12:34:37;20.20;68.40
37002;DHT22;22913;51.910;8.374;2023-04-06T12:37:23;20.40;68.00
37002;DHT22;22913;51.910;8.374;2023-04-06T12:40:10;20.00;68.60
37002;DHT22;22913;51.910;8.374;2023-04-06T12:42:56;20.10;67.70
37002;DHT22;22913;51.910;8.374;2023-04-06T12:45:43;20.00;66.90
37002;DHT22;22913;51.910;8.374;2023-04-06T12:48:28;19.70;66.50
37002;DHT22;22913;51.910;8.374;2023-04-06T12:51:14;19.60;67.40
37002;DHT22;22913;51.910;8.374;2023-04-06T12:54:01;19.50;68.80
37002;DHT22;22913;51.910;8.374;2023-04-06T12:56:47;19.20;67.60
37002;DHT22;22913;51.910;8.374;2023-04-06T12:59:33;19.10;68.60
37002;DHT22;22913;51.910;8.374;2023-04-06T13:02:20;19.00;66.70
37002;DHT22;22913;51.910;8.374;2023-04-06T13:05:07;18.60;66.40
37002;DHT22;22913;51.910;8.374;2023-04-06T13:07:52;18.20;67.00
37002;DHT22;22913;51.910;8.374;2023-04-06T13:10:38;18.10;68.00
37002;DHT22;22913;51.910;8.374;2023-04-06T13:13:25;17.80;68.80
37002;DHT22;22913;51.910;8.374;2023-04-06T13:16:11;17.80;69.60
37002;DHT22;22913;51.910;8.374;2023-04-06T13:18:58;18.00;69.90
37002;DHT22;22913;51.910;8.374;2023-04-06T13:21:45;18.10;70.30
37002;DHT22;22913;51.910;8.374;2023-04-06T13:24:31;18.70;69.20
37002;DHT22;22913;51.910;8.374;2023-04-06T13:27:16;19.10;69.60
37002;DHT22;22913;51.910;8.374;2023-04-06T13:30:02;19.10;67.90
37002;DHT22;22913;51.910;8.374;2023-04-06T13:32:49;19.80;67.80
37002;DHT22;22913;51.910;8.374;2023-04-06T13:35:36;20.10;66.80
37002;DHT22;22913;51.910;8.374;2023-04-06T13:38:21;20.50;67.90
37002;DHT22;22913;51.910;8.374;2023-04-06T13:41:08;20.50;66.80
37002;DHT22;22913;51.910;8.374;2023-04-06T13:43:54;19.90;67.40
37002;DHT22;22913;51.910;8.374;2023-04-06T13:46:39;19.50;68.80
37002;DHT22;22913;51.910;8.374;2023-04-06T13:49:25;19.10;69.00
37002;DHT22;22913;51.910;8.374;2023-04-06T13:52:12;18.60;69.20
37002;DHT22;22913;51.910;8.374;2023-04-06T13:54:58;18.40;69.50
37002;DHT22;22913;51.910;8.374;2023-04-06T13:57:43;18.30;69.40
37002;DHT22;22913;51.910;8.374;2023-04-06T14:00:29;18.40;69.80
37002;DHT22;22913;51.910;8.374;2023-04-06T14:03:15;18.30;69.70
37002;DHT22;22913;51.910;8.374;2023-04-06T14:06:01;18.00;70.50
37002;DHT22;22913;51.910;8.374;2023-04-06T14:08:55;17.90;71.80
37002;DHT22;22913;51.910;8.374;2023-04-06T14:11:41;18.20;72.20
37002;DHT22;22913;51.910;8.374;2023-04-06T14:14:26;18.60;70.20
37002;DHT22;22913;51.910;8.374;2023-04-06T14:17:12;18.30;69.30
37002;DHT22;22913;51.910;8.374;2023-04-06T14:19:58;18.20;69.80
37002;DHT22;22913;51.910;8.374;2023-04-06T14:22:44;18.20;67.20
37002;DHT22;22913;51.910;8.374;2023-04-06T14:25:31;18.90;68.00
37002;DHT22;22913;51.910;8.374;2023-04-06T14:28:20;19.30;66.10
37002;DHT22;22913;51.910;8.374;2023-04-06T14:31:10;18.80;65.60
37002;DHT22;22913;51.910;8.374;2023-04-06T14:33:57;18.40;65.50
37002;DHT22;22913;51.910;8.374;2023-04-06T14:36:43;18.10;66.00
37002;DHT22;22913;51.910;8.374;2023-04-06T14:39:29;18.00;67.60
37002;DHT22;22913;51.910;8.374;2023-04-06T14:42:16;17.70;67.90
37002;DHT22;22913;51.910;8.374;2023-04-06T14:45:02;17.40;68.60
37002;DHT22;22913;51.910;8.374;2023-04-06T14:47:47;17.10;69.30
37002;DHT22;22913;51.910;8.374;2023-04-06T14:50:33;17.10;69.70
37002;DHT22;22913;51.910;8.374;2023-04-06T14:53:19;17.10;70.90
37002;DHT22;22913;51.910;8.374;2023-04-06T14:56:05;17.20;70.30
37002;DHT22;22913;51.910;8.374;2023-04-06T14:58:52;17.10;70.40
37002;DHT22;22913;51.910;8.374;2023-04-06T15:01:39;17.10;70.20
37002;DHT22;22913;51.910;8.374;2023-04-06T15:04:24;16.80;70.20
37002;DHT22;22913;51.910;8.374;2023-04-06T15:07:10;17.00;71.10
37002;DHT22;22913;51.910;8.374;2023-04-06T15:09:56;17.30;71.30
37002;DHT22;22913;51.910;8.374;2023-04-06T15:12:42;17.30;70.50
37002;DHT22;22913;51.910;8.374;2023-04-06T15:15:29;17.50;70.60
37002;DHT22;22913;51.910;8.374;2023-04-06T15:18:15;17.50;69.30
37002;DHT22;22913;51.910;8.374;2023-04-06T15:21:01;17.00;70.50
37002;DHT22;22913;51.910;8.374;2023-04-06T15:23:46;16.90;71.50
37002;DHT22;22913;51.910;8.374;2023-04-06T15:26:32;16.80;72.30
37002;DHT22;22913;51.910;8.374;2023-04-06T15:29:18;16.50;72.50
37002;DHT22;22913;51.910;8.374;2023-04-06T15:32:05;16.40;73.50
37002;DHT22;22913;51.910;8.374;2023-04-06T15:34:52;16.10;74.40
37002;DHT22;22913;51.910;8.374;2023-04-06T15:37:38;16.10;74.80
37002;DHT22;22913;51.910;8.374;2023-04-06T15:40:24;16.10;74.90
37002;DHT22;22913;51.910;8.374;2023-04-06T15:43:10;16.00;74.90
37002;DHT22;22913;51.910;8.374;2023-04-06T15:45:55;16.00;75.90
37002;DHT22;22913;51.910;8.374;2023-04-06T15:48:42;16.10;75.30
37002;DHT22;22913;51.910;8.374;2023-04-06T15:51:27;16.00;75.30
37002;DHT22;22913;51.910;8.374;2023-04-06T15:54:13;15.90;76.30
37002;DHT22;22913;51.910;8.374;2023-04-06T15:56:59;15.80;76.50
37002;DHT22;22913;51.910;8.374;2023-04-06T15:59:45;15.60;77.20
37002;DHT22;22913;51.910;8.374;2023-04-06T16:02:30;15.60;77.30
37002;DHT22;22913;51.910;8.374;2023-04-06T16:05:18;15.50;77.50
37002;DHT22;22913;51.910;8.374;2023-04-06T16:08:03;15.40;78.00
37002;DHT22;22913;51.910;8.374;2023-04-06T16:10:49;15.40;78.20
37002;DHT22;22913;51.910;8.374;2023-04-06T16:13:35;15.30;80.00
37002;DHT22;22913;51.910;8.374;2023-04-06T16:16:20;15.30;78.80
37002;DHT22;22913;51.910;8.374;2023-04-06T16:19:06;15.50;79.60
37002;DHT22;22913;51.910;8.374;2023-04-06T16:21:53;15.40;80.70
37002;DHT22;22913;51.910;8.374;2023-04-06T16:24:38;15.20;80.00
37002;DHT22;22913;51.910;8.374;2023-04-06T16:27:24;15.20;81.00
37002;DHT22;22913;51.910;8.374;2023-04-06T16:30:11;15.20;81.10
37002;DHT22;22913;51.910;8.374;2023-04-06T16:32:56;15.20;82.10
37002;DHT22;22913;51.910;8.374;2023-04-06T16:35:43;15.00;81.90
37002;DHT22;22913;51.910;8.374;2023-04-06T16:38:30;14.80;83.50
37002;DHT22;22913;51.910;8.374;2023-04-06T16:41:19;14.70;83.00
37002;DHT22;22913;51.910;8.374;2023-04-06T16:44:05;14.70;83.20
37002;DHT22;22913;51.910;8.374;2023-04-06T16:46:51;14.60;84.00
37002;DHT22;22913;51.910;8.374;2023-04-06T16:49:37;14.50;84.50
37002;DHT22;22913;51.910;8.374;2023-04-06T16:52:22;14.50;85.30
37002;DHT22;22913;51.910;8.374;2023-04-06T16:55:10;14.30;87.30
37002;DHT22;22913;51.910;8.374;2023-04-06T16:57:56;14.00;90.80
37002;DHT22;22913;51.910;8.374;2023-04-06T17:00:41;14.00;92.00
37002;DHT22;22913;51.910;8.374;2023-04-06T17:03:28;13.90;92.60
37002;DHT22;22913;51.910;8.374;2023-04-06T17:06:14;13.90;93.70
37002;DHT22;22913;51.910;8.374;2023-04-06T17:09:00;13.90;94.50
37002;DHT22;22913;51.910;8.374;2023-04-06T17:11:47;13.80;95.20
37002;DHT22;22913;51.910;8.374;2023-04-06T17:14:32;13.70;96.10
37002;DHT22;22913;51.910;8.374;2023-04-06T17:17:18;13.60;96.70
37002;DHT22;22913;51.910;8.374;2023-04-06T17:20:04;13.60;96.70
37002;DHT22;22913;51.910;8.374;2023-04-06T17:22:50;13.50;97.40
37002;DHT22;22913;51.910;8.374;2023-04-06T17:25:36;13.50;97.30
37002;DHT22;22913;51.910;8.374;2023-04-06T17:28:23;13.30;97.70
37002;DHT22;22913;51.910;8.374;2023-04-06T17:31:09;13.40;97.60
37002;DHT22;22913;51.910;8.374;2023-04-06T17:33:55;13.30;98.10
37002;DHT22;22913;51.910;8.374;2023-04-06T17:36:41;13.20;98.40
37002;DHT22;22913;51.910;8.374;2023-04-06T17:39:26;13.20;98.00
37002;DHT22;22913;51.910;8.374;2023-04-06T17:42:12;13.20;98.10